Skip Navigation LinksHome page > Weather > Current weather Skip Navigation Links

Current Weather

Desert Rock, Mercury, Nev.

For information only: do not use for flight planning or navigation.
Latest weather
Observation time Saturday, October 19, 2019 2:53 AM PDT
Local time Saturday, October 19, 2019 4:03 AM PDT
Flight conditions Visual Meteorological Conditions
Winds
Wind direction East (100°)
Wind speed 6 mph
Visibility 10 mi.
Sky condition
Ceiling unlimited
Sky clear
Temperature 44°F
Dewpoint 3°F
Altimeter 29.98 in.Hg
Derived measurements
Relative humidity 18%
Wind chill 41°F
Density altitude 2284 ft.
Sea-level pressure 29.90 in.Hg
Remarks
Fully automated report.
Automated weather observing station with precipitation discriminator.
METAR KDRA 190953Z AUTO 10005KT 10SM CLR 07/M16 A2998 RMK AO2 SLP126 T00671161

Settings

Location code

InnerDrive.Weather 4.0.6770.0 Release CLR 4.0.30319.42000
Copyright ©2018 Inner Drive Technology. All rights reserved. Portions Copyright ©1986-2018 David Braverman.

Find weather

Site navigation


Skip Navigation Links

Place info

Page info

PayPal - The safer, easier way to pay online!

Return home.

Copyright ©2019 Inner Drive Technology. Purveyors of fine, hand-crafted computer software. Page printed 2019-10-19T11:03:19 UTC.